createdAt,value
2022-08-26T00:01:14.094Z,100003.50
2022-08-26T00:04:17.149Z,99998.91
2022-08-26T00:07:19.788Z,100002.78
2022-08-26T00:10:23.675Z,100009.06
2022-08-26T00:13:28.524Z,100006.50
2022-08-26T00:16:32.081Z,99993.72
2022-08-26T00:19:34.600Z,100005.00
2022-08-26T00:22:37.862Z,99999.34
2022-08-26T00:25:42.478Z,100004.66
2022-08-26T00:28:45.618Z,99997.25
2022-08-26T00:31:48.102Z,99998.91
2022-08-26T00:34:51.190Z,99997.25
2022-08-26T00:37:54.373Z,99993.87
2022-08-26T00:40:58.144Z,99982.41
2022-08-26T00:44:01.305Z,99983.81
2022-08-26T00:47:06.576Z,99978.91
2022-08-26T00:50:12.674Z,99983.25
2022-08-26T00:53:25.876Z,99971.19
2022-08-26T00:56:38.888Z,99974.75
2022-08-26T00:59:42.408Z,99979.69
2022-08-26T01:02:47.539Z,99970.87
2022-08-26T01:05:52.373Z,99974.66
2022-08-26T01:08:57.038Z,99971.25
2022-08-26T01:12:02.374Z,99977.38
2022-08-26T01:15:06.598Z,99973.78
2022-08-26T01:18:09.909Z,99972.47
2022-08-26T01:21:27.759Z,99977.28
2022-08-26T01:24:32.373Z,99978.81
2022-08-26T01:27:35.455Z,99981.72
2022-08-26T01:30:39.829Z,99978.13
2022-08-26T01:33:53.340Z,99974.03
2022-08-26T01:37:02.200Z,99979.66
2022-08-26T01:40:07.256Z,99974.28
2022-08-26T01:43:16.488Z,99977.31
2022-08-26T01:46:20.353Z,99973.94
2022-08-26T01:49:24.819Z,99980.47
2022-08-26T01:52:30.568Z,99980.94
2022-08-26T01:55:35.041Z,99987.78
2022-08-26T01:58:47.584Z,99975.25
2022-08-26T02:01:51.440Z,99981.28
2022-08-26T02:05:02.326Z,99978.78
2022-08-26T02:08:05.821Z,99972.69
2022-08-26T02:11:08.622Z,99980.66
2022-08-26T02:14:23.828Z,99979.63
2022-08-26T02:17:34.493Z,99989.66
2022-08-26T02:20:37.531Z,99975.44
2022-08-26T02:23:40.658Z,99979.84
2022-08-26T02:26:45.054Z,99970.87
2022-08-26T02:29:52.085Z,99980.59
2022-08-26T02:32:54.935Z,99970.34
2022-08-26T02:35:59.362Z,99979.06
2022-08-26T02:39:01.885Z,99975.28
2022-08-26T02:42:05.510Z,99975.56
2022-08-26T02:45:09.710Z,99973.94
2022-08-26T02:48:16.155Z,99972.19
2022-08-26T02:51:21.315Z,99972.91
2022-08-26T02:54:24.813Z,99970.97
2022-08-26T02:57:27.496Z,99969.75
2022-08-26T03:00:31.450Z,99976.25
2022-08-26T03:03:34.126Z,99981.22
2022-08-26T03:06:37.587Z,99970.47
2022-08-26T03:09:40.432Z,99965.53
2022-08-26T03:12:47.327Z,99960.44
2022-08-26T03:15:50.740Z,99966.28
2022-08-26T03:18:53.894Z,99961.28
2022-08-26T03:21:57.758Z,99962.59
2022-08-26T03:25:02.225Z,99964.69
2022-08-26T03:28:05.203Z,99961.47
2022-08-26T03:31:10.517Z,99966.19
2022-08-26T03:34:13.087Z,99963.06
2022-08-26T03:37:16.464Z,99971.25
2022-08-26T03:40:20.558Z,99964.03
2022-08-26T03:43:26.818Z,99965.78
2022-08-26T03:46:31.454Z,99968.50
2022-08-26T03:49:35.922Z,99967.25
2022-08-26T03:52:43.057Z,99983.59
2022-08-26T03:55:47.193Z,99970.69
2022-08-26T03:58:54.346Z,99976.06
2022-08-26T04:01:58.298Z,99979.69
2022-08-26T04:05:01.190Z,99976.06
2022-08-26T04:08:06.000Z,99979.03
2022-08-26T04:11:08.882Z,99972.84
2022-08-26T04:14:20.079Z,99972.69
2022-08-26T04:17:25.756Z,99974.16
2022-08-26T04:20:28.579Z,99975.09
2022-08-26T04:23:31.463Z,99973.19
2022-08-26T04:26:50.420Z,99976.94
2022-08-26T04:29:55.337Z,99981.13
2022-08-26T04:32:58.435Z,99978.41
2022-08-26T04:36:02.753Z,99979.28
2022-08-26T04:39:07.181Z,99985.22
2022-08-26T04:42:10.087Z,99981.34
2022-08-26T04:45:12.631Z,99981.47
2022-08-26T04:48:16.792Z,99984.59
2022-08-26T04:51:20.602Z,99978.63
2022-08-26T04:54:23.332Z,99978.94
2022-08-26T04:57:27.822Z,99983.38
2022-08-26T05:00:30.587Z,99989.59
2022-08-26T05:03:33.057Z,99979.59
2022-08-26T05:06:37.222Z,99981.44
2022-08-26T05:09:40.683Z,99978.19
2022-08-26T05:12:43.509Z,99986.03
2022-08-26T05:15:47.912Z,99986.47
2022-08-26T05:18:53.276Z,99988.16
2022-08-26T05:21:56.068Z,99979.16
2022-08-26T05:24:59.214Z,99989.03
2022-08-26T05:28:01.703Z,99978.09
2022-08-26T05:31:23.608Z,99985.75
2022-08-26T05:34:30.077Z,99981.13
2022-08-26T05:37:33.564Z,99983.09
2022-08-26T05:40:40.808Z,99983.34
2022-08-26T05:43:44.095Z,99992.00
2022-08-26T05:46:46.846Z,99983.78
2022-08-26T05:49:51.537Z,99984.56
2022-08-26T05:52:54.245Z,99975.44
2022-08-26T05:55:58.412Z,99980.13
2022-08-26T05:59:02.935Z,99975.72
2022-08-26T06:02:07.441Z,99972.88
2022-08-26T06:05:10.525Z,99979.13
2022-08-26T06:08:19.284Z,99970.37
2022-08-26T06:11:27.031Z,99976.22
2022-08-26T06:14:30.581Z,99970.81
2022-08-26T06:17:33.526Z,99980.28
2022-08-26T06:20:38.123Z,99974.44
2022-08-26T06:24:01.267Z,99978.41
2022-08-26T06:27:05.976Z,99977.28
2022-08-26T06:30:09.982Z,99977.69
2022-08-26T06:33:13.408Z,99969.69
2022-08-26T06:36:20.613Z,99975.03
2022-08-26T06:39:23.494Z,99977.59
2022-08-26T06:42:26.708Z,99978.47
2022-08-26T06:45:29.297Z,99972.81
2022-08-26T06:48:34.078Z,99972.38
2022-08-26T06:51:39.333Z,99970.16
2022-08-26T06:54:44.286Z,99968.94
2022-08-26T06:57:46.846Z,99967.00
2022-08-26T07:00:49.615Z,99969.22
2022-08-26T07:03:57.096Z,99971.06
2022-08-26T07:07:00.291Z,99966.56
2022-08-26T07:10:02.818Z,99962.94
2022-08-26T07:13:06.706Z,99963.25
2022-08-26T07:16:12.902Z,99970.25
2022-08-26T07:19:30.463Z,99964.22
2022-08-26T07:22:33.866Z,99965.00
2022-08-26T07:25:41.249Z,99963.28
2022-08-26T07:28:46.343Z,99962.16
2022-08-26T07:31:49.108Z,99961.09
2022-08-26T07:34:51.916Z,99954.50
2022-08-26T07:37:57.073Z,99944.12
2022-08-26T07:40:59.802Z,99955.75
2022-08-26T07:44:03.067Z,99954.84
2022-08-26T07:47:24.071Z,99948.94
2022-08-26T07:50:48.786Z,99951.31
2022-08-26T07:53:52.499Z,99957.38
2022-08-26T07:56:56.094Z,99947.41
2022-08-26T07:59:59.571Z,99944.88
2022-08-26T08:03:03.890Z,99938.50
2022-08-26T08:06:06.931Z,99931.00
2022-08-26T08:09:09.956Z,99942.28
2022-08-26T08:12:14.122Z,99942.50
2022-08-26T08:15:20.201Z,99939.59
2022-08-26T08:18:23.490Z,99942.44
2022-08-26T08:21:27.889Z,99932.81
2022-08-26T08:24:35.850Z,99939.41
2022-08-26T08:27:40.351Z,99938.19
2022-08-26T08:30:43.137Z,99924.97
2022-08-26T08:33:46.495Z,99923.69
2022-08-26T08:36:50.618Z,99922.94
2022-08-26T08:39:56.190Z,99927.28
2022-08-26T08:43:05.282Z,99919.34
2022-08-26T08:46:13.093Z,99911.88
2022-08-26T08:49:16.777Z,99920.22
2022-08-26T08:52:33.570Z,99919.47
2022-08-26T08:55:46.853Z,99915.38
2022-08-26T08:59:17.143Z,99920.88
2022-08-26T09:02:43.334Z,99917.56
2022-08-26T09:05:48.836Z,99913.59
2022-08-26T09:08:52.173Z,99917.53
2022-08-26T09:11:56.440Z,99915.66
2022-08-26T09:15:07.530Z,99911.56
2022-08-26T09:18:29.832Z,99908.03
2022-08-26T09:21:33.033Z,99892.84
2022-08-26T09:24:42.093Z,99893.00
2022-08-26T09:27:53.772Z,99891.47
2022-08-26T09:31:11.526Z,99889.44
2022-08-26T09:34:19.093Z,99886.75
2022-08-26T09:40:59.035Z,99879.19
2022-08-26T09:44:14.734Z,99882.59
2022-08-26T09:47:23.579Z,99880.13
2022-08-26T09:50:31.122Z,99880.44
2022-08-26T09:53:39.981Z,99879.25
2022-08-26T09:56:46.485Z,99872.75
2022-08-26T09:59:49.782Z,99871.00
2022-08-26T10:02:54.791Z,99875.66
2022-08-26T10:06:03.466Z,99869.03
2022-08-26T10:09:09.864Z,99861.69
2022-08-26T10:12:17.728Z,99864.28
2022-08-26T10:15:21.355Z,99865.59
2022-08-26T10:18:33.774Z,99854.53
2022-08-26T10:21:56.800Z,99855.19
2022-08-26T10:25:03.967Z,99852.47
2022-08-26T10:28:20.626Z,99844.53
2022-08-26T10:31:40.639Z,99845.44
2022-08-26T10:34:43.889Z,99840.22
2022-08-26T10:37:57.844Z,99844.66
2022-08-26T10:41:09.991Z,99845.22
2022-08-26T10:44:15.632Z,99842.31
2022-08-26T10:47:23.013Z,99840.31
2022-08-26T10:50:31.219Z,99839.44
2022-08-26T10:53:55.914Z,99830.25
2022-08-26T10:57:14.241Z,99836.16
2022-08-26T11:00:50.608Z,99826.41
2022-08-26T11:04:00.528Z,99817.31
2022-08-26T11:07:34.262Z,99819.56
2022-08-26T11:10:43.191Z,99814.25
2022-08-26T11:14:00.299Z,99808.09
2022-08-26T11:17:03.733Z,99806.59
2022-08-26T11:20:13.207Z,99802.94
2022-08-26T11:23:31.158Z,99795.13
2022-08-26T11:26:37.665Z,99789.94
2022-08-26T11:30:04.260Z,99791.41
2022-08-26T11:33:08.222Z,99786.47
2022-08-26T11:36:46.509Z,99774.53
2022-08-26T11:39:54.949Z,99769.12
2022-08-26T11:43:13.477Z,99768.28
2022-08-26T11:46:25.200Z,99756.31
2022-08-26T11:49:29.024Z,99762.38
2022-08-26T11:52:31.542Z,99758.28
2022-08-26T11:55:37.305Z,99763.06
2022-08-26T11:58:44.525Z,99755.00
2022-08-26T12:01:50.905Z,99740.44
2022-08-26T12:04:54.822Z,99737.75
2022-08-26T12:07:59.868Z,99744.78
2022-08-26T12:11:06.383Z,99739.63
2022-08-26T12:14:17.819Z,99736.06
2022-08-26T12:17:27.729Z,99735.53
2022-08-26T12:20:48.629Z,99733.19
2022-08-26T12:23:54.692Z,99725.97
2022-08-26T12:27:11.261Z,99731.78
2022-08-26T12:30:23.979Z,99728.72
2022-08-26T12:33:26.731Z,99729.78
2022-08-26T12:36:33.916Z,99727.53
2022-08-26T12:39:39.460Z,99714.62
2022-08-26T12:42:43.606Z,99717.22
2022-08-26T12:45:57.630Z,99716.81
2022-08-26T12:49:04.082Z,99705.91
2022-08-26T12:52:08.537Z,99703.28
2022-08-26T12:55:32.006Z,99702.22
2022-08-26T12:58:39.144Z,99701.72
2022-08-26T13:01:43.892Z,99701.56
2022-08-26T13:04:46.731Z,99690.75
2022-08-26T13:08:10.719Z,99693.53
2022-08-26T13:11:21.135Z,99689.53
2022-08-26T13:14:24.742Z,99688.13
2022-08-26T13:17:28.510Z,99690.41
2022-08-26T13:20:32.326Z,99687.25
2022-08-26T13:23:38.369Z,99678.88
2022-08-26T13:26:45.513Z,99676.44
2022-08-26T13:29:48.219Z,99674.19
2022-08-26T13:32:54.431Z,99671.59
2022-08-26T13:35:57.541Z,99662.53
2022-08-26T13:39:00.767Z,99661.34
2022-08-26T13:42:03.372Z,99665.66
2022-08-26T13:45:06.765Z,99660.91
2022-08-26T13:48:09.523Z,99655.34
2022-08-26T13:51:12.860Z,99657.37
2022-08-26T13:54:15.478Z,99644.25
2022-08-26T13:57:18.347Z,99635.53
2022-08-26T14:00:21.196Z,99634.75
2022-08-26T14:03:24.870Z,99635.06
2022-08-26T14:06:27.478Z,99615.44
2022-08-26T14:09:30.293Z,99623.81
2022-08-26T14:12:33.108Z,99628.75
2022-08-26T14:15:37.421Z,99627.56
2022-08-26T14:18:42.544Z,99627.94
2022-08-26T14:21:47.208Z,99626.03
2022-08-26T14:24:50.577Z,99635.56
2022-08-26T14:27:54.365Z,99636.09
2022-08-26T14:30:58.337Z,99632.91
2022-08-26T14:34:06.275Z,99632.78
2022-08-26T14:37:11.465Z,99643.22
2022-08-26T14:40:18.809Z,99644.47
2022-08-26T14:43:21.949Z,99644.81
2022-08-26T14:46:29.090Z,99647.12
2022-08-26T14:49:32.838Z,99641.16
2022-08-26T14:52:55.637Z,99640.59
2022-08-26T14:55:58.213Z,99640.09
2022-08-26T14:59:01.427Z,99638.75
2022-08-26T15:02:05.184Z,99632.09
2022-08-26T15:05:08.752Z,99632.44
2022-08-26T15:08:12.339Z,99627.87
2022-08-26T15:11:18.347Z,99627.37
2022-08-26T15:14:21.517Z,99616.06
2022-08-26T15:17:24.415Z,99617.12
2022-08-26T15:20:27.621Z,99605.28
2022-08-26T15:23:30.474Z,99609.41
2022-08-26T15:26:34.918Z,99605.72
2022-08-26T15:29:37.753Z,99597.56
2022-08-26T15:32:40.599Z,99600.34
2022-08-26T15:35:43.737Z,99595.09
2022-08-26T15:38:46.328Z,99591.13
2022-08-26T15:41:49.368Z,99585.34
2022-08-26T15:44:52.472Z,99589.47
2022-08-26T15:48:00.797Z,99590.09
2022-08-26T15:51:04.512Z,99588.56
2022-08-26T15:54:07.472Z,99589.09
2022-08-26T15:57:15.332Z,99585.91
2022-08-26T16:00:20.102Z,99581.72
2022-08-26T16:03:23.032Z,99584.78
2022-08-26T16:06:29.100Z,99581.50
2022-08-26T16:09:32.011Z,99581.16
2022-08-26T16:12:34.562Z,99579.75
2022-08-26T16:15:38.201Z,99583.53
2022-08-26T16:18:40.970Z,99577.62
2022-08-26T16:21:44.791Z,99572.56
2022-08-26T16:24:47.319Z,99574.28
2022-08-26T16:27:51.888Z,99559.31
2022-08-26T16:30:54.473Z,99564.94
2022-08-26T16:33:57.351Z,99559.87
2022-08-26T16:37:00.637Z,99558.94
2022-08-26T16:40:05.175Z,99565.16
2022-08-26T16:43:07.822Z,99560.94
2022-08-26T16:46:16.331Z,99567.19
2022-08-26T16:49:19.205Z,99569.72
2022-08-26T16:52:22.054Z,99565.03
2022-08-26T16:55:27.373Z,99559.03
2022-08-26T16:58:30.395Z,99555.22
2022-08-26T17:01:33.051Z,99556.63
2022-08-26T17:04:36.382Z,99554.47
2022-08-26T17:07:39.595Z,99554.81
2022-08-26T17:13:45.983Z,99549.53
2022-08-26T17:16:51.499Z,99551.66
2022-08-26T17:19:54.061Z,99546.63
2022-08-26T17:22:56.937Z,99543.50
2022-08-26T17:25:59.527Z,99545.22
2022-08-26T17:29:02.482Z,99543.13
2022-08-26T17:32:05.064Z,99541.72
2022-08-26T17:35:08.654Z,99544.94
2022-08-26T17:38:14.502Z,99548.09
2022-08-26T17:41:17.371Z,99542.88
2022-08-26T17:44:19.843Z,99552.22
2022-08-26T17:47:22.610Z,99554.44
2022-08-26T17:50:25.157Z,99558.37
2022-08-26T17:53:27.998Z,99556.06
2022-08-26T17:56:30.723Z,99567.56
2022-08-26T17:59:33.595Z,99564.34
2022-08-26T18:02:37.834Z,99568.41
2022-08-26T18:05:41.348Z,99569.53
2022-08-26T18:08:44.954Z,99574.19
2022-08-26T18:11:47.807Z,99580.84
2022-08-26T18:14:50.327Z,99579.38
2022-08-26T18:17:53.476Z,99577.56
2022-08-26T18:21:01.301Z,99577.62
2022-08-26T18:24:05.088Z,99581.09
2022-08-26T18:27:07.677Z,99580.28
2022-08-26T18:30:16.951Z,99586.69
2022-08-26T18:33:21.498Z,99588.69
2022-08-26T18:36:28.040Z,99582.25
2022-08-26T18:39:30.589Z,99584.19
2022-08-26T18:42:33.788Z,99586.38
2022-08-26T18:45:36.303Z,99582.84
2022-08-26T18:48:40.533Z,99582.00
2022-08-26T18:51:43.822Z,99585.81
2022-08-26T18:54:46.754Z,99592.88
2022-08-26T18:57:50.787Z,99590.37
2022-08-26T19:00:53.551Z,99600.56
2022-08-26T19:03:57.535Z,99603.97
2022-08-26T19:07:00.308Z,99603.25
2022-08-26T19:10:05.308Z,99594.88
2022-08-26T19:13:09.552Z,99605.13
2022-08-26T19:16:24.837Z,99602.63
2022-08-26T19:19:28.294Z,99603.28
2022-08-26T19:22:30.772Z,99606.41
2022-08-26T19:25:33.519Z,99609.56
2022-08-26T19:28:37.026Z,99620.22
2022-08-26T19:31:39.924Z,99621.78
2022-08-26T19:34:44.512Z,99627.16
2022-08-26T19:37:48.051Z,99622.66
2022-08-26T19:40:50.531Z,99633.44
2022-08-26T19:43:53.381Z,99632.94
2022-08-26T19:47:03.590Z,99634.81
2022-08-26T19:50:10.083Z,99636.19
2022-08-26T19:53:12.688Z,99638.94
2022-08-26T19:56:15.856Z,99639.06
2022-08-26T19:59:18.690Z,99640.31
2022-08-26T20:02:21.520Z,99644.06
2022-08-26T20:05:26.021Z,99646.31
2022-08-26T20:08:28.780Z,99644.06
2022-08-26T20:11:32.585Z,99644.16
2022-08-26T20:14:35.840Z,99654.66
2022-08-26T20:17:38.962Z,99649.78
2022-08-26T20:21:00.388Z,99657.53
2022-08-26T20:24:12.805Z,99662.69
2022-08-26T20:27:15.634Z,99658.16
2022-08-26T20:30:18.535Z,99671.31
2022-08-26T20:33:21.463Z,99671.41
2022-08-26T20:36:28.920Z,99679.31
2022-08-26T20:39:31.486Z,99685.59
2022-08-26T20:42:34.573Z,99680.22
2022-08-26T20:45:37.230Z,99690.38
2022-08-26T20:48:40.114Z,99686.66
2022-08-26T20:51:45.723Z,99683.91
2022-08-26T20:54:48.513Z,99696.03
2022-08-26T20:57:52.029Z,99688.91
2022-08-26T21:00:55.129Z,99684.84
2022-08-26T21:03:57.691Z,99680.59
2022-08-26T21:07:00.508Z,99682.34
2022-08-26T21:10:03.246Z,99684.34
2022-08-26T21:13:06.883Z,99686.34
2022-08-26T21:16:12.094Z,99687.72
2022-08-26T21:19:18.092Z,99683.94
2022-08-26T21:22:20.721Z,99681.31
2022-08-26T21:25:23.543Z,99683.06
2022-08-26T21:28:26.062Z,99676.94
2022-08-26T21:31:29.860Z,99682.38
2022-08-26T21:34:32.791Z,99682.97
2022-08-26T21:37:35.725Z,99678.97
2022-08-26T21:40:40.060Z,99672.03
2022-08-26T21:43:42.985Z,99683.63
2022-08-26T21:46:46.345Z,99676.97
2022-08-26T21:49:49.178Z,99666.09
2022-08-26T21:52:51.703Z,99668.22
2022-08-26T21:55:54.479Z,99670.66
2022-08-26T21:58:57.842Z,99668.97
2022-08-26T22:02:00.998Z,99665.75
2022-08-26T22:05:04.320Z,99675.91
2022-08-26T22:08:06.906Z,99663.94
2022-08-26T22:11:10.499Z,99673.06
2022-08-26T22:14:13.431Z,99671.53
2022-08-26T22:17:17.100Z,99674.38
2022-08-26T22:20:19.682Z,99675.84
2022-08-26T22:23:23.166Z,99678.97
2022-08-26T22:26:29.204Z,99665.47
2022-08-26T22:29:33.230Z,99673.59
2022-08-26T22:32:35.823Z,99669.09
2022-08-26T22:35:43.856Z,99674.22
2022-08-26T22:38:47.293Z,99671.94
2022-08-26T22:41:50.250Z,99667.75
2022-08-26T22:44:52.779Z,99662.47
2022-08-26T22:47:55.915Z,99669.97
2022-08-26T22:51:00.263Z,99663.81
2022-08-26T22:54:03.368Z,99665.78
2022-08-26T22:57:06.019Z,99657.13
2022-08-26T23:00:12.429Z,99658.34
2022-08-26T23:03:16.817Z,99659.44
2022-08-26T23:06:19.704Z,99658.56
2022-08-26T23:09:22.369Z,99667.25
2022-08-26T23:12:25.234Z,99662.66
2022-08-26T23:15:27.769Z,99660.13
2022-08-26T23:18:30.862Z,99659.03
2022-08-26T23:21:33.425Z,99653.00
2022-08-26T23:24:36.311Z,99655.75
2022-08-26T23:27:41.360Z,99653.97
2022-08-26T23:30:44.139Z,99644.97
2022-08-26T23:34:05.194Z,99651.81
2022-08-26T23:37:08.868Z,99648.88
2022-08-26T23:40:15.884Z,99649.19
2022-08-26T23:43:18.785Z,99650.97
2022-08-26T23:46:21.655Z,99652.94
2022-08-26T23:49:26.844Z,99648.75
2022-08-26T23:52:31.257Z,99649.41
2022-08-26T23:55:35.917Z,99656.00
2022-08-26T23:58:38.473Z,99661.59
